Time;durP1;ratioP1;P1;durP2;ratioP2;P2;SDS_P1;SDS_P2;PMS_P1;PMS_P2;Temp;Humidity;BMP_temperature;BMP_pressure;BME280_temperature;BME280_humidity;BME280_pressure;Samples;Min_cycle;Max_cycle;Signal;HPM_P1;HPM_P2
2022/10/14 00:01:08;;;;;;;2.80;2.50;;;19.50;61.10;;;;;;4966265;29;20180;-68
2022/10/14 00:03:35;;;;;;;3.35;2.33;;;19.50;61.10;;;;;;4966612;29;20048;-67
2022/10/14 00:06:06;;;;;;;2.78;2.33;;;19.50;61.10;;;;;;4966159;29;20042;-68
2022/10/14 00:08:32;;;;;;;2.60;2.38;;;19.50;61.10;;;;;;4966491;29;20263;-67
2022/10/14 00:11:04;;;;;;;2.40;2.20;;;19.50;61.20;;;;;;4965851;28;20033;-67
2022/10/14 00:13:30;;;;;;;2.38;2.17;;;19.50;61.10;;;;;;4965840;28;20234;-68
2022/10/14 00:15:56;;;;;;;2.97;2.30;;;19.50;61.10;;;;;;4966250;29;20023;-68
2022/10/14 00:18:22;;;;;;;2.83;2.53;;;19.40;61.00;;;;;;4966175;28;20027;-68
2022/10/14 00:20:59;;;;;;;3.22;2.92;;;19.40;61.10;;;;;;4966610;28;20035;-68
2022/10/14 00:23:25;;;;;;;2.45;2.13;;;19.40;61.10;;;;;;4965746;29;20046;-68
2022/10/14 00:25:51;;;;;;;3.88;2.65;;;19.40;61.10;;;;;;4966298;29;20030;-67
2022/10/14 00:28:17;;;;;;;2.53;2.33;;;19.40;61.10;;;;;;4966535;29;20124;-67
2022/10/14 00:30:53;;;;;;;2.88;2.47;;;19.40;61.10;;;;;;4966098;29;20090;-67
2022/10/14 00:33:19;;;;;;;3.47;2.83;;;19.40;61.10;;;;;;4965997;28;20147;-67
2022/10/14 00:35:59;;;;;;;3.67;2.65;;;19.50;61.10;;;;;;4966492;28;20099;-68
2022/10/14 00:38:25;;;;;;;3.53;2.58;;;19.50;61.10;;;;;;4966236;29;20078;-67
2022/10/14 00:40:52;;;;;;;2.63;2.42;;;19.40;61.10;;;;;;4966225;29;20019;-67
2022/10/14 00:43:19;;;;;;;3.53;2.28;;;19.40;61.20;;;;;;4966349;28;20323;-67
2022/10/14 00:45:45;;;;;;;2.63;2.42;;;19.40;61.20;;;;;;4966325;29;20046;-67
2022/10/14 00:48:12;;;;;;;2.53;2.30;;;19.40;61.80;;;;;;4964611;29;20028;-67
2022/10/14 00:50:40;;;;;;;2.55;2.35;;;19.40;61.10;;;;;;4964665;29;20192;-67
2022/10/14 00:53:07;;;;;;;3.03;2.72;;;19.40;61.20;;;;;;4965820;29;20022;-68
2022/10/14 00:55:33;;;;;;;2.30;2.10;;;19.40;61.10;;;;;;4965294;29;20541;-67
2022/10/14 00:57:59;;;;;;;2.40;2.20;;;19.40;61.10;;;;;;4965475;28;20015;-68
2022/10/14 01:00:25;;;;;;;3.25;2.60;;;19.40;61.10;;;;;;4965318;28;20038;-67
2022/10/14 01:02:51;;;;;;;3.20;2.72;;;19.40;61.10;;;;;;4965236;29;20070;-67
2022/10/14 01:05:18;;;;;;;2.40;2.20;;;19.40;61.10;;;;;;4965186;29;20027;-68
2022/10/14 01:08:01;;;;;;;2.67;2.47;;;19.40;61.20;;;;;;4965492;29;20061;-68
2022/10/14 01:10:45;;;;;;;3.25;2.60;;;19.40;61.10;;;;;;4965585;29;20260;-67
2022/10/14 01:13:30;;;;;;;3.35;2.67;;;19.40;61.10;;;;;;4965691;29;20090;-68
2022/10/14 01:16:33;;;;;;;3.20;2.63;;;19.40;61.20;;;;;;4965399;29;20019;-67
2022/10/14 01:19:14;;;;;;;2.83;2.53;;;19.40;61.10;;;;;;4965319;29;20094;-67
2022/10/14 01:21:45;;;;;;;3.25;2.92;;;19.40;61.20;;;;;;4965654;29;20019;-67
2022/10/14 01:24:44;;;;;;;3.42;2.30;;;19.40;61.10;;;;;;4980620;28;20026;-68
2022/10/14 01:27:18;;;;;;;2.40;2.20;;;19.40;61.20;;;;;;4966056;29;20325;-67
2022/10/14 01:29:50;;;;;;;2.55;2.00;;;19.40;61.20;;;;;;4965482;29;20042;-67
2022/10/14 01:32:31;;;;;;;2.83;2.47;;;19.40;61.20;;;;;;4965418;28;20023;-67
2022/10/14 01:35:06;;;;;;;2.58;2.30;;;19.30;61.10;;;;;;4969374;29;20035;-68
2022/10/14 01:37:35;;;;;;;2.17;1.98;;;19.40;61.20;;;;;;4969159;29;20021;-67
2022/10/14 01:40:09;;;;;;;3.00;2.60;;;19.40;61.20;;;;;;4969172;28;20026;-68
2022/10/14 01:42:39;;;;;;;3.30;2.78;;;19.30;61.20;;;;;;4968895;29;20018;-67
2022/10/14 01:45:12;;;;;;;3.72;2.80;;;19.30;61.20;;;;;;4968681;29;20373;-68
2022/10/14 01:47:40;;;;;;;2.63;2.42;;;19.40;61.20;;;;;;4968612;29;20023;-67
2022/10/14 01:50:13;;;;;;;3.13;2.63;;;19.30;61.10;;;;;;4968382;29;20199;-66
2022/10/14 01:52:47;;;;;;;2.83;2.53;;;19.30;61.20;;;;;;4968488;29;20315;-66
2022/10/14 01:55:21;;;;;;;2.65;2.40;;;19.30;61.20;;;;;;4968652;29;20076;-67
2022/10/14 01:57:50;;;;;;;3.47;2.67;;;19.30;61.20;;;;;;4968464;29;20078;-68
2022/10/14 02:00:16;;;;;;;3.00;2.75;;;19.30;61.20;;;;;;4968093;29;20078;-67
2022/10/14 02:02:42;;;;;;;3.10;2.67;;;19.30;61.20;;;;;;4968069;29;20251;-68
2022/10/14 02:05:20;;;;;;;2.90;2.58;;;19.30;61.20;;;;;;4968934;29;20063;-67
2022/10/14 02:07:51;;;;;;;3.63;2.83;;;19.30;61.20;;;;;;4968215;29;20026;-68
2022/10/14 02:10:35;;;;;;;2.53;2.03;;;19.30;61.20;;;;;;4968299;29;20030;-67
2022/10/14 02:13:10;;;;;;;2.15;1.95;;;19.30;61.20;;;;;;4968139;28;20041;-68
2022/10/14 02:16:05;;;;;;;2.65;2.45;;;19.30;61.20;;;;;;4968186;29;20053;-68
2022/10/14 02:18:33;;;;;;;3.10;2.20;;;19.30;61.20;;;;;;4968151;29;20022;-68
2022/10/14 02:21:16;;;;;;;2.90;2.40;;;19.30;61.10;;;;;;4968422;29;20019;-66
2022/10/14 02:23:49;;;;;;;2.33;2.13;;;19.30;61.10;;;;;;4968857;29;20019;-67
2022/10/14 02:26:15;;;;;;;3.13;2.50;;;19.30;61.20;;;;;;4967811;29;20023;-68
2022/10/14 02:28:43;;;;;;;2.53;2.33;;;19.30;61.20;;;;;;4967653;29;20053;-68
2022/10/14 02:31:13;;;;;;;2.53;2.23;;;19.30;61.20;;;;;;4968017;28;20207;-68
2022/10/14 02:33:42;;;;;;;2.58;2.25;;;19.30;61.20;;;;;;4982864;28;20047;-68
2022/10/14 02:36:10;;;;;;;4.07;2.47;;;19.30;61.20;;;;;;4967382;29;20034;-67
2022/10/14 02:38:38;;;;;;;2.20;2.00;;;19.30;61.20;;;;;;4967569;29;20015;-67
2022/10/14 02:41:06;;;;;;;3.95;3.10;;;19.30;61.20;;;;;;4967410;29;20066;-67
2022/10/14 02:43:32;;;;;;;;;;;19.30;61.20;;;;;;4967889;28;20019;-67
2022/10/14 02:46:01;;;;;;;3.50;2.60;;;19.30;61.20;;;;;;4966875;28;19902;-67
2022/10/14 02:48:26;;;;;;;2.97;2.67;;;19.30;61.20;;;;;;4967490;28;20034;-67
2022/10/14 02:50:52;;;;;;;2.80;2.58;;;19.30;61.20;;;;;;4967256;29;20090;-68
2022/10/14 02:53:18;;;;;;;2.85;2.22;;;19.30;61.20;;;;;;4967325;29;20034;-67
2022/10/14 02:55:44;;;;;;;4.25;2.80;;;19.30;61.20;;;;;;4967137;28;20027;-67
2022/10/14 02:58:09;;;;;;;3.97;2.55;;;19.30;61.20;;;;;;4966939;29;20026;-68
2022/10/14 03:00:35;;;;;;;3.42;2.63;;;19.30;61.20;;;;;;4966877;29;20246;-67
2022/10/14 03:03:01;;;;;;;4.72;2.70;;;19.30;61.20;;;;;;4966848;29;20023;-68
2022/10/14 03:05:27;;;;;;;2.72;2.50;;;19.30;61.20;;;;;;4966805;29;20026;-67
2022/10/14 03:07:52;;;;;;;2.97;2.13;;;19.30;61.20;;;;;;4966742;29;20026;-68
2022/10/14 03:10:18;;;;;;;2.20;2.05;;;19.30;61.20;;;;;;4966690;29;20258;-69
2022/10/14 03:12:44;;;;;;;3.88;2.88;;;19.20;61.10;;;;;;4966657;29;20074;-68
2022/10/14 03:15:10;;;;;;;2.40;2.20;;;19.30;61.20;;;;;;4966545;29;20030;-68
2022/10/14 03:17:36;;;;;;;2.78;2.50;;;19.20;61.10;;;;;;4966535;29;20026;-67
2022/10/14 03:20:03;;;;;;;3.20;2.30;;;19.20;61.10;;;;;;4966540;29;20019;-68
2022/10/14 03:22:29;;;;;;;3.20;2.53;;;19.20;61.10;;;;;;4966474;29;20023;-67
2022/10/14 03:24:54;;;;;;;2.53;2.33;;;19.20;61.10;;;;;;4966409;29;20375;-67
2022/10/14 03:27:20;;;;;;;3.03;2.40;;;19.20;61.20;;;;;;4966426;28;20338;-68
2022/10/14 03:29:46;;;;;;;2.70;2.47;;;19.30;61.20;;;;;;4966314;28;20244;-67
2022/10/14 03:32:12;;;;;;;2.72;2.53;;;19.20;61.20;;;;;;4966296;29;20078;-67
2022/10/14 03:34:37;;;;;;;2.53;2.30;;;19.20;61.20;;;;;;4966159;28;20263;-67
2022/10/14 03:37:03;;;;;;;2.63;2.40;;;19.20;61.20;;;;;;4966149;29;20031;-67
2022/10/14 03:39:29;;;;;;;2.83;2.60;;;19.20;61.10;;;;;;4966415;29;20046;-67
2022/10/14 03:41:55;;;;;;;3.72;2.22;;;19.20;61.20;;;;;;4966133;29;20070;-68
2022/10/14 03:44:20;;;;;;;3.88;2.90;;;19.20;61.20;;;;;;4966087;29;20027;-68
2022/10/14 03:46:46;;;;;;;4.72;2.55;;;19.20;61.20;;;;;;4966273;29;20242;-68
2022/10/14 03:49:12;;;;;;;2.75;2.55;;;19.20;61.20;;;;;;4966005;29;20019;-67
2022/10/14 03:51:38;;;;;;;2.55;2.35;;;19.20;61.20;;;;;;4965903;29;20024;-67
2022/10/14 03:54:03;;;;;;;2.88;2.08;;;19.20;61.20;;;;;;4965875;29;20218;-67
2022/10/14 03:56:29;;;;;;;2.80;2.45;;;19.20;61.20;;;;;;4965800;28;20360;-67
2022/10/14 03:58:55;;;;;;;2.47;2.28;;;19.20;61.20;;;;;;4965827;29;20075;-68
2022/10/14 04:01:21;;;;;;;2.78;2.42;;;19.20;61.20;;;;;;4965817;28;20140;-67
2022/10/14 04:03:47;;;;;;;2.67;2.40;;;19.20;61.20;;;;;;4965772;29;20026;-67
2022/10/14 04:06:13;;;;;;;2.60;2.40;;;19.20;61.20;;;;;;4965660;29;20051;-68
2022/10/14 04:08:39;;;;;;;2.50;2.28;;;19.20;61.20;;;;;;4965905;28;20019;-68
2022/10/14 04:11:05;;;;;;;3.25;2.80;;;19.20;61.20;;;;;;4965649;29;20023;-68
2022/10/14 04:13:31;;;;;;;2.92;2.03;;;19.20;61.20;;;;;;4965582;29;20031;-67
2022/10/14 04:16:05;;;;;;;2.22;2.03;;;19.20;61.20;;;;;;4965512;29;20330;-67
2022/10/14 04:18:32;;;;;;;2.72;2.40;;;19.20;61.20;;;;;;4965580;28;20219;-66
2022/10/14 04:21:05;;;;;;;3.63;2.35;;;19.20;61.20;;;;;;4965514;29;20026;-66
2022/10/14 04:23:32;;;;;;;3.35;2.60;;;19.20;61.20;;;;;;4965523;29;20015;-67
2022/10/14 04:25:57;;;;;;;2.85;2.17;;;19.20;61.20;;;;;;4965425;29;20030;-67
2022/10/14 04:28:23;;;;;;;2.65;2.45;;;19.20;61.20;;;;;;4965485;28;20047;-67
2022/10/14 04:30:49;;;;;;;3.30;2.40;;;19.20;61.20;;;;;;4965403;28;20042;-68
2022/10/14 04:33:15;;;;;;;3.05;2.40;;;19.10;61.20;;;;;;4965215;29;20092;-67
2022/10/14 04:35:40;;;;;;;2.38;2.17;;;19.10;61.20;;;;;;4965265;29;20464;-68
2022/10/14 04:38:07;;;;;;;2.53;2.10;;;19.10;61.10;;;;;;4965271;29;20019;-68
2022/10/14 04:40:32;;;;;;;2.65;2.45;;;19.20;61.20;;;;;;4965284;29;20019;-68
2022/10/14 04:42:58;;;;;;;2.58;2.38;;;19.20;61.20;;;;;;4965259;29;20214;-68
2022/10/14 04:45:24;;;;;;;2.65;2.40;;;19.10;61.20;;;;;;4965258;28;20023;-69
2022/10/14 04:47:51;;;;;;;2.97;2.55;;;19.10;61.20;;;;;;4965242;28;20050;-67
2022/10/14 04:50:18;;;;;;;2.95;2.65;;;19.10;61.20;;;;;;4965206;29;20389;-67
2022/10/14 04:52:43;;;;;;;2.80;2.60;;;19.10;61.20;;;;;;4965100;29;20034;-67
2022/10/14 04:55:09;;;;;;;3.53;2.95;;;19.10;61.20;;;;;;4965091;29;20039;-67
2022/10/14 04:57:35;;;;;;;2.45;2.25;;;19.10;61.20;;;;;;4965165;29;20315;-68
2022/10/14 05:00:03;;;;;;;2.67;2.47;;;19.10;61.20;;;;;;4965116;29;20027;-68
2022/10/14 05:02:29;;;;;;;2.83;2.45;;;19.10;61.20;;;;;;4965079;29;20066;-68
2022/10/14 05:04:55;;;;;;;2.50;2.30;;;19.10;61.20;;;;;;4965082;28;20027;-68
2022/10/14 05:07:21;;;;;;;3.50;2.53;;;19.10;61.20;;;;;;4965029;28;20015;-68
2022/10/14 05:09:46;;;;;;;3.10;2.80;;;19.10;61.20;;;;;;4968700;29;20208;-67
2022/10/14 05:12:13;;;;;;;3.03;2.47;;;19.10;61.20;;;;;;4968833;29;20268;-69
2022/10/14 05:14:39;;;;;;;3.15;2.67;;;19.10;61.20;;;;;;4968775;28;20026;-68
2022/10/14 05:17:05;;;;;;;3.17;2.88;;;19.10;61.20;;;;;;4968629;29;20027;-68
2022/10/14 05:19:31;;;;;;;2.47;2.28;;;19.10;61.20;;;;;;4968707;29;20022;-67
2022/10/14 05:21:56;;;;;;;2.40;2.20;;;19.10;61.20;;;;;;4968680;29;20019;-67
2022/10/14 05:24:22;;;;;;;2.63;2.42;;;19.10;61.30;;;;;;4968651;29;20031;-67
2022/10/14 05:26:48;;;;;;;3.10;2.42;;;19.10;61.30;;;;;;4968851;29;20031;-67
2022/10/14 05:29:14;;;;;;;2.50;2.30;;;19.10;61.30;;;;;;4968558;29;20022;-68
2022/10/14 05:31:39;;;;;;;2.20;2.00;;;19.10;61.20;;;;;;4968521;29;20034;-67
2022/10/14 05:34:05;;;;;;;2.83;2.50;;;19.10;61.30;;;;;;4968299;29;20102;-67
2022/10/14 05:36:31;;;;;;;2.90;2.63;;;19.10;61.20;;;;;;4968376;28;20046;-68
2022/10/14 05:38:57;;;;;;;3.45;2.50;;;19.10;61.30;;;;;;4968361;29;20019;-67
2022/10/14 05:41:26;;;;;;;2.50;2.10;;;19.10;61.20;;;;;;4968333;29;20030;-67
2022/10/14 05:43:52;;;;;;;2.72;2.53;;;19.10;61.20;;;;;;4968320;29;20037;-68
2022/10/14 05:46:18;;;;;;;2.65;2.05;;;19.10;61.20;;;;;;4968276;28;20326;-67
2022/10/14 05:48:44;;;;;;;2.20;2.00;;;19.10;61.30;;;;;;4968184;29;20027;-68
2022/10/14 05:51:09;;;;;;;2.63;2.15;;;19.10;61.30;;;;;;4968404;29;20034;-67
2022/10/14 05:53:38;;;;;;;2.47;2.17;;;19.10;61.30;;;;;;4968126;29;20210;-67
2022/10/14 05:56:06;;;;;;;2.65;2.45;;;19.10;61.30;;;;;;4967984;29;20307;-67
2022/10/14 05:58:32;;;;;;;2.70;2.42;;;19.10;61.30;;;;;;4967992;29;20094;-67
2022/10/14 06:01:02;;;;;;;2.42;2.20;;;19.10;61.20;;;;;;4967969;29;20038;-67
2022/10/14 06:03:28;;;;;;;2.33;2.13;;;19.10;61.20;;;;;;4967916;29;20021;-68
2022/10/14 06:05:54;;;;;;;2.80;2.45;;;19.10;61.20;;;;;;4967909;29;20362;-67
2022/10/14 06:08:22;;;;;;;4.10;2.88;;;19.10;61.20;;;;;;4967878;28;20234;-67
2022/10/14 06:10:48;;;;;;;2.50;2.30;;;19.10;61.20;;;;;;4967773;29;20023;-67
2022/10/14 06:13:14;;;;;;;3.08;2.67;;;19.10;61.20;;;;;;4967751;29;20050;-67
2022/10/14 06:15:39;;;;;;;2.90;2.60;;;19.10;61.20;;;;;;4967665;29;20023;-67
2022/10/14 06:18:05;;;;;;;2.97;2.70;;;19.10;61.20;;;;;;4967696;29;20066;-67
2022/10/14 06:20:31;;;;;;;2.67;2.47;;;19.10;61.20;;;;;;4966472;28;20011;-66
2022/10/14 06:22:58;;;;;;;3.22;2.33;;;19.10;61.20;;;;;;4967575;29;20047;-66
2022/10/14 06:25:25;;;;;;;2.63;2.42;;;19.10;61.20;;;;;;4967552;29;20200;-66
2022/10/14 06:27:50;;;;;;;2.38;2.08;;;19.10;61.20;;;;;;4967487;29;20083;-67
2022/10/14 06:30:16;;;;;;;3.13;2.58;;;19.10;61.20;;;;;;4967456;29;20027;-70
2022/10/14 06:32:42;;;;;;;2.33;2.13;;;19.10;61.20;;;;;;4967213;29;20027;-68
2022/10/14 06:35:09;;;;;;;4.13;2.47;;;19.10;61.10;;;;;;4967323;29;20098;-67
2022/10/14 06:37:35;;;;;;;2.53;2.30;;;19.10;61.10;;;;;;4966170;29;20027;-68
2022/10/14 06:40:00;;;;;;;2.42;1.80;;;19.10;61.10;;;;;;4967252;29;20026;-68
2022/10/14 06:42:26;;;;;;;2.83;2.28;;;19.10;61.10;;;;;;4967233;29;20023;-67
2022/10/14 06:44:52;;;;;;;2.30;2.03;;;19.10;61.00;;;;;;4967154;29;20042;-68
2022/10/14 06:47:18;;;;;;;2.85;2.58;;;19.10;61.10;;;;;;4967094;29;20024;-67
2022/10/14 06:49:44;;;;;;;2.33;2.13;;;19.10;61.10;;;;;;4967099;29;20065;-67
2022/10/14 06:52:09;;;;;;;2.60;2.40;;;19.10;61.10;;;;;;4967021;29;20037;-67
2022/10/14 06:54:35;;;;;;;2.45;2.25;;;19.10;61.10;;;;;;4966997;29;20050;-66
2022/10/14 06:57:01;;;;;;;2.33;2.10;;;19.10;61.10;;;;;;4966896;29;20038;-68
2022/10/14 06:59:29;;;;;;;4.07;2.50;;;19.10;61.00;;;;;;4966945;28;20038;-68
2022/10/14 07:01:55;;;;;;;;;;;19.10;61.00;;;;;;4967321;28;20325;-67
2022/10/14 07:04:21;;;;;;;2.30;2.10;;;19.20;61.00;;;;;;4966827;28;19906;-68
2022/10/14 07:06:46;;;;;;;4.28;2.67;;;19.20;60.90;;;;;;4966766;29;20254;-68
2022/10/14 07:09:12;;;;;;;2.25;2.00;;;19.20;60.90;;;;;;4966736;29;20033;-67
2022/10/14 07:11:38;;;;;;;2.85;2.63;;;19.20;60.90;;;;;;4966733;28;20090;-68
2022/10/14 07:14:04;;;;;;;2.72;2.42;;;19.20;60.80;;;;;;4966617;29;20353;-67
2022/10/14 07:16:30;;;;;;;2.70;2.45;;;19.20;60.90;;;;;;4966583;28;20019;-67
2022/10/14 07:18:55;;;;;;;2.67;2.10;;;19.20;60.80;;;;;;4966570;29;20043;-67
2022/10/14 07:21:21;;;;;;;3.08;2.72;;;19.30;60.80;;;;;;4966522;29;20019;-67
2022/10/14 07:23:47;;;;;;;3.17;2.80;;;19.30;60.80;;;;;;4966489;28;20043;-68
2022/10/14 07:26:13;;;;;;;2.60;2.40;;;19.30;60.70;;;;;;4981438;28;20142;-67
2022/10/14 07:28:38;;;;;;;3.03;2.50;;;19.30;60.60;;;;;;4966398;29;20046;-67
2022/10/14 07:31:09;;;;;;;2.65;2.45;;;19.30;60.50;;;;;;4966035;28;20023;-67
2022/10/14 07:33:37;;;;;;;2.33;1.95;;;19.30;60.50;;;;;;4964852;29;20282;-67
2022/10/14 07:36:04;;;;;;;3.67;2.30;;;19.30;60.50;;;;;;4966183;29;20031;-68
2022/10/14 07:38:31;;;;;;;2.90;2.60;;;19.30;60.50;;;;;;4966230;29;20086;-68
2022/10/14 07:41:02;;;;;;;2.60;2.17;;;19.30;60.50;;;;;;4966150;29;20333;-68
2022/10/14 07:43:28;;;;;;;2.70;2.50;;;19.30;60.60;;;;;;4966145;29;20026;-67
2022/10/14 07:46:00;;;;;;;2.35;2.15;;;19.30;60.50;;;;;;4966062;29;20023;-67
2022/10/14 07:48:28;;;;;;;2.72;2.42;;;19.30;60.50;;;;;;4966056;29;20070;-67
2022/10/14 07:50:54;;;;;;;2.60;2.40;;;19.30;60.60;;;;;;4966024;29;20319;-67
2022/10/14 07:53:22;;;;;;;2.55;2.15;;;19.30;60.60;;;;;;4965923;29;20026;-67
2022/10/14 07:55:51;;;;;;;2.60;1.90;;;19.30;60.60;;;;;;4965808;29;20023;-67
2022/10/14 07:58:26;;;;;;;2.63;2.08;;;19.30;60.60;;;;;;4964739;29;20314;-68
2022/10/14 08:00:53;;;;;;;2.17;1.98;;;19.30;60.60;;;;;;4965788;29;20082;-68
2022/10/14 08:03:21;;;;;;;2.28;2.08;;;19.30;60.60;;;;;;4965758;29;20019;-68
2022/10/14 08:05:48;;;;;;;3.10;2.42;;;19.30;60.60;;;;;;4965693;29;20066;-67
2022/10/14 08:08:16;;;;;;;3.57;2.50;;;19.30;60.60;;;;;;4980707;28;20019;-67
2022/10/14 08:10:42;;;;;;;2.95;2.40;;;19.30;60.70;;;;;;4965500;29;20023;-66
2022/10/14 08:13:08;;;;;;;3.05;2.75;;;19.30;60.80;;;;;;4965596;29;20023;-68
2022/10/14 08:15:42;;;;;;;2.83;2.55;;;19.30;60.70;;;;;;4965383;29;20046;-66
2022/10/14 08:18:09;;;;;;;2.58;2.38;;;19.30;60.80;;;;;;4965626;28;20019;-67
2022/10/14 08:20:36;;;;;;;2.70;2.50;;;19.30;60.90;;;;;;4965559;29;20300;-68
2022/10/14 08:23:01;;;;;;;3.75;2.55;;;19.20;60.80;;;;;;4965483;29;20066;-67
2022/10/14 08:25:28;;;;;;;2.60;2.30;;;19.30;60.90;;;;;;4965429;29;20031;-66
2022/10/14 08:27:56;;;;;;;2.90;2.60;;;19.30;60.80;;;;;;4965489;28;20019;-67
2022/10/14 08:30:23;;;;;;;2.45;2.25;;;19.30;60.90;;;;;;4965418;29;20095;-68
2022/10/14 08:32:49;;;;;;;3.08;2.78;;;19.30;60.90;;;;;;4965204;29;20023;-67
2022/10/14 08:35:15;;;;;;;3.30;2.80;;;19.30;60.90;;;;;;4965325;29;20057;-68
2022/10/14 08:37:40;;;;;;;2.67;2.47;;;19.20;60.90;;;;;;4965310;29;20203;-68
2022/10/14 08:40:09;;;;;;;3.00;2.25;;;19.30;60.90;;;;;;4965300;29;20023;-68
2022/10/14 08:42:50;;;;;;;2.95;2.60;;;19.20;60.90;;;;;;4964643;29;20016;-68
2022/10/14 08:45:32;;;;;;;2.78;2.30;;;19.30;60.90;;;;;;4965244;28;20251;-67
2022/10/14 08:48:00;;;;;;;3.15;2.85;;;19.30;61.00;;;;;;4965262;29;20023;-67
2022/10/14 08:50:48;;;;;;;2.80;2.42;;;19.20;61.00;;;;;;4965221;29;20206;-68
2022/10/14 08:53:28;;;;;;;2.88;2.45;;;19.20;61.00;;;;;;4965229;29;20019;-68
2022/10/14 08:55:59;;;;;;;2.50;2.25;;;19.20;61.00;;;;;;4965125;28;20030;-67
2022/10/14 08:58:31;;;;;;;2.38;2.17;;;19.20;61.10;;;;;;4965176;29;20022;-68
2022/10/14 09:01:01;;;;;;;2.90;2.63;;;19.20;61.00;;;;;;4965089;29;20299;-68
2022/10/14 09:03:32;;;;;;;2.78;2.50;;;19.20;61.00;;;;;;4965139;29;20021;-67
2022/10/14 09:06:06;;;;;;;3.03;2.70;;;19.20;61.00;;;;;;4965123;28;20309;-68
2022/10/14 09:08:42;;;;;;;2.63;2.33;;;19.30;61.00;;;;;;4965061;29;20019;-67
2022/10/14 09:11:18;;;;;;;3.00;2.70;;;19.30;61.00;;;;;;4965073;29;20019;-67
2022/10/14 09:13:48;;;;;;;3.20;2.60;;;19.30;61.00;;;;;;4965048;29;20019;-68
2022/10/14 09:16:24;;;;;;;3.08;2.78;;;19.30;60.90;;;;;;4979918;28;20273;-68
2022/10/14 09:19:05;;;;;;;2.63;2.42;;;19.30;60.90;;;;;;4964939;29;20023;-68
2022/10/14 09:21:32;;;;;;;2.30;2.10;;;19.30;60.80;;;;;;4964953;29;20019;-68
2022/10/14 09:24:02;;;;;;;2.67;2.05;;;19.30;60.80;;;;;;4964906;29;20373;-68
2022/10/14 09:26:37;;;;;;;3.75;2.90;;;19.40;60.80;;;;;;4965179;29;20358;-67
2022/10/14 09:29:03;;;;;;;2.60;2.38;;;19.40;60.70;;;;;;4964891;29;20024;-66
2022/10/14 09:31:29;;;;;;;2.95;2.58;;;19.40;60.70;;;;;;4964879;28;20337;-68
2022/10/14 09:33:55;;;;;;;2.67;2.45;;;19.40;60.60;;;;;;4964683;29;20039;-67
2022/10/14 09:36:21;;;;;;;2.58;2.28;;;19.40;60.60;;;;;;4964738;29;20034;-67
2022/10/14 09:38:52;;;;;;;2.83;2.53;;;19.50;60.70;;;;;;4979789;28;20350;-67
2022/10/14 09:41:29;;;;;;;2.58;2.38;;;19.50;60.60;;;;;;4964760;28;20023;-67
2022/10/14 09:44:20;;;;;;;2.72;2.53;;;19.40;60.60;;;;;;4964782;29;20066;-68
2022/10/14 09:46:49;;;;;;;3.10;2.80;;;19.40;60.60;;;;;;4964754;28;20086;-68
2022/10/14 09:49:26;;;;;;;2.70;2.50;;;19.40;60.60;;;;;;4964679;29;20023;-67
2022/10/14 09:51:52;;;;;;;2.75;2.38;;;19.40;60.60;;;;;;4964674;29;20019;-68
2022/10/14 09:54:25;;;;;;;2.20;2.00;;;19.50;60.60;;;;;;4965801;28;20218;-67
2022/10/14 09:57:06;;;;;;;2.85;2.55;;;19.50;60.60;;;;;;4968043;28;20027;-67
2022/10/14 09:59:33;;;;;;;2.25;2.05;;;19.50;60.60;;;;;;4968066;29;20031;-67
2022/10/14 10:02:02;;;;;;;2.67;2.40;;;19.50;60.60;;;;;;4967967;29;20055;-67
2022/10/14 10:04:33;;;;;;;3.90;2.53;;;19.50;60.60;;;;;;4967948;28;20382;-68
2022/10/14 10:07:01;;;;;;;3.05;2.40;;;19.50;60.60;;;;;;4967869;29;20027;-68
2022/10/14 10:09:27;;;;;;;3.00;2.40;;;19.50;60.60;;;;;;4966715;29;20215;-68
2022/10/14 10:11:54;;;;;;;2.65;2.05;;;19.50;60.60;;;;;;4967814;29;20095;-68
2022/10/14 10:14:28;;;;;;;2.50;2.30;;;19.60;60.60;;;;;;4967766;28;20046;-67
2022/10/14 10:17:06;;;;;;;2.30;2.05;;;19.60;60.60;;;;;;4967694;28;20389;-68
2022/10/14 10:19:35;;;;;;;2.63;2.17;;;19.60;60.50;;;;;;4967694;29;20047;-67
2022/10/14 10:22:19;;;;;;;2.65;2.45;;;19.60;60.50;;;;;;4967636;29;20030;-68
2022/10/14 10:25:01;;;;;;;2.45;2.25;;;19.60;60.40;;;;;;4967575;28;20329;-67
2022/10/14 10:27:38;;;;;;;2.75;2.33;;;19.60;60.50;;;;;;4967551;29;20094;-68
2022/10/14 10:30:16;;;;;;;2.63;2.28;;;19.60;60.40;;;;;;4967526;29;20019;-67
2022/10/14 10:32:49;;;;;;;2.78;2.50;;;19.60;60.40;;;;;;4967445;29;20030;-67
2022/10/14 10:35:17;;;;;;;2.22;1.92;;;19.60;60.40;;;;;;4966994;29;20023;-68
2022/10/14 10:38:29;;;;;;;2.70;2.50;;;19.60;60.40;;;;;;4967382;29;20023;-68
2022/10/14 10:41:19;;;;;;;2.75;2.55;;;19.70;60.40;;;;;;4984722;28;20023;-68
2022/10/14 10:44:16;;;;;;;4.13;2.63;;;19.70;60.40;;;;;;4984763;28;20046;-68
2022/10/14 10:46:54;;;;;;;2.13;1.98;;;19.70;60.40;;;;;;4969591;28;20400;-67
2022/10/14 10:49:52;;;;;;;3.33;2.35;;;19.70;60.40;;;;;;4967234;28;20047;-67
2022/10/14 10:52:36;;;;;;;2.55;2.15;;;19.70;60.30;;;;;;4967074;29;20031;-67
2022/10/14 10:55:24;;;;;;;2.47;2.28;;;19.70;60.30;;;;;;4967013;28;20362;-68
2022/10/14 10:58:25;;;;;;;2.53;2.17;;;19.80;60.30;;;;;;4967013;29;20211;-67
2022/10/14 11:01:01;;;;;;;2.40;2.20;;;19.70;60.20;;;;;;4966973;28;20050;-68
2022/10/14 11:03:48;;;;;;;2.25;2.05;;;19.70;60.30;;;;;;4966929;29;20019;-69
2022/10/14 11:12:31;;;;;;;1.92;1.80;;;19.80;60.20;;;;;;4966759;29;20026;-67
2022/10/14 11:15:04;;;;;;;3.15;2.22;;;19.80;60.20;;;;;;4966706;29;20063;-67
2022/10/14 11:17:47;;;;;;;2.20;2.00;;;19.80;60.10;;;;;;4966616;29;20023;-69
2022/10/14 11:20:42;;;;;;;1.92;1.83;;;19.90;60.10;;;;;;4966609;29;20027;-67
2022/10/14 11:23:19;;;;;;;2.75;2.55;;;19.90;60.10;;;;;;4966734;29;20054;-67
2022/10/14 11:26:04;;;;;;;2.80;2.22;;;19.90;60.10;;;;;;4966463;29;20042;-67
2022/10/14 11:29:04;;;;;;;2.55;2.35;;;19.90;60.00;;;;;;4966468;28;20023;-68
2022/10/14 11:31:45;;;;;;;2.60;2.30;;;19.90;60.10;;;;;;4966387;29;20019;-68
2022/10/14 11:34:35;;;;;;;2.88;2.20;;;19.80;60.20;;;;;;4966185;29;20102;-67
2022/10/14 11:37:23;;;;;;;2.45;2.25;;;19.90;60.20;;;;;;4966187;29;20102;-68
2022/10/14 11:40:00;;;;;;;2.45;2.20;;;19.80;60.30;;;;;;4966276;29;20019;-68
2022/10/14 11:42:57;;;;;;;2.40;2.15;;;19.80;60.50;;;;;;4966174;29;20303;-68
2022/10/14 11:45:47;;;;;;;3.55;2.33;;;19.80;60.60;;;;;;4966151;28;20027;-68
2022/10/14 11:48:32;;;;;;;2.78;2.33;;;19.80;60.60;;;;;;4966023;29;20019;-67
2022/10/14 11:51:29;;;;;;;2.55;2.22;;;19.70;60.70;;;;;;4965976;29;20361;-67
2022/10/14 11:54:04;;;;;;;2.53;2.03;;;19.70;60.70;;;;;;4973290;28;20043;-68
2022/10/14 11:56:49;;;;;;;2.35;2.00;;;19.80;60.80;;;;;;4965879;29;20086;-68
2022/10/14 11:59:42;;;;;;;2.10;1.90;;;19.70;60.80;;;;;;4980841;28;20019;-68
2022/10/14 12:02:25;;;;;;;3.22;2.55;;;19.70;60.70;;;;;;4965853;29;20019;-68
2022/10/14 12:05:52;;;;;;;2.47;2.10;;;19.70;60.70;;;;;;4965823;28;20071;-69
2022/10/14 12:08:56;;;;;;;2.17;1.98;;;19.70;60.70;;;;;;4944628;29;20082;-69
2022/10/14 12:11:47;;;;;;;2.42;2.22;;;19.70;60.70;;;;;;4965718;28;20047;-67
2022/10/14 12:14:37;;;;;;;2.33;1.95;;;19.80;60.80;;;;;;4965653;29;20034;-67
2022/10/14 12:17:06;;;;;;;2.88;2.22;;;19.70;60.80;;;;;;4967759;28;20062;-68
2022/10/14 12:19:32;;;;;;;2.28;2.08;;;19.80;60.80;;;;;;4965195;29;20019;-67
2022/10/14 12:22:21;;;;;;;2.65;2.08;;;19.80;60.70;;;;;;4965533;29;20247;-67
2022/10/14 12:24:53;;;;;;;2.65;2.30;;;19.90;61.20;;;;;;4965540;29;20214;-68
2022/10/14 12:27:22;;;;;;;2.65;2.45;;;19.90;60.30;;;;;;4965455;29;20011;-68
2022/10/14 12:29:50;;;;;;;2.58;2.10;;;19.90;60.20;;;;;;4965400;29;20019;-68
2022/10/14 12:32:15;;;;;;;2.50;2.30;;;19.90;60.20;;;;;;4965415;29;20211;-67
2022/10/14 12:34:49;;;;;;;2.55;2.10;;;19.90;60.30;;;;;;4965247;29;20046;-68
2022/10/14 12:37:23;;;;;;;2.65;2.45;;;19.90;60.50;;;;;;4965305;29;20027;-68
2022/10/14 12:40:02;;;;;;;2.38;2.17;;;19.80;60.50;;;;;;4965322;29;20050;-67
2022/10/14 12:42:29;;;;;;;2.55;2.35;;;19.80;60.60;;;;;;4965273;28;20192;-67
2022/10/14 12:45:00;;;;;;;2.30;2.03;;;19.70;60.70;;;;;;4965298;28;20211;-67
2022/10/14 12:47:33;;;;;;;2.30;2.10;;;19.70;60.80;;;;;;4965199;29;20026;-68
2022/10/14 12:50:14;;;;;;;2.40;2.08;;;19.70;60.90;;;;;;4965266;28;20046;-67
2022/10/14 12:52:44;;;;;;;2.72;2.20;;;19.70;60.80;;;;;;4965216;29;20033;-68
2022/10/14 12:55:20;;;;;;;2.50;2.30;;;19.70;60.90;;;;;;4964031;29;20098;-68
2022/10/14 12:57:56;;;;;;;2.28;2.08;;;19.70;60.90;;;;;;4965208;29;20247;-68
2022/10/14 13:00:21;;;;;;;1.98;1.77;;;19.70;60.90;;;;;;4965127;29;20030;-67
2022/10/14 13:02:53;;;;;;;4.43;2.38;;;19.70;60.90;;;;;;4965098;29;20015;-68
2022/10/14 13:05:32;;;;;;;2.65;2.05;;;19.70;60.80;;;;;;4965122;29;20062;-68
2022/10/14 13:08:22;;;;;;;2.20;2.00;;;19.90;60.60;;;;;;4965107;29;20172;-67
2022/10/14 13:10:49;;;;;;;2.75;2.15;;;19.90;60.20;;;;;;4965005;29;20011;-67
2022/10/14 13:13:37;;;;;;;2.25;2.03;;;19.90;60.40;;;;;;4965037;28;20027;-67
2022/10/14 13:16:06;;;;;;;2.30;2.10;;;19.80;60.50;;;;;;4964976;29;20046;-67